»·PEaware :: SWA250 KABQ-KDAL

SWA250 :: KABQ-KDAL

FLIGHT INFORMATION

Flight Status: Arrived
Operator:
Southwest Airlines
More flights by this operator :: More flights under this callsign
Pilot: Andrew J. (13363)
Aircraft: BOEING 737-700
(B737)
More flights by this aircraft type
Origin: KABQ Albuquerque Intl Sunport
United States
Destination: KDAL Dallas Love
United States
More flights between these airports :: More routes between these airports
Route: DOOKK3 TXO TURKI JFRYE3
File this flight plan on PilotEdge
Remarks:
Altitude:
(Current/Filed)
37,000ft
Speed:
(Current/Filed)
460kts
Departed: 08-May-19 10:15 PM
Arrived: 08-May-19 11:38 PM
Distance/Time
Traveled:
503nm/1:22
Distance/Time
To Go:
Arrived

Flight Plot

Page will automatically refresh every two minutes.

Flight plan parsing failed; only flown route is shown


Map Options




Map Legend


Flown Route
Filed Route
Departure Airport
Arrival Airport
Navaid (VOR, NDB)
Fix

Horizontal Profiles

Position Reports

Time Latitude Longitude Heading Altitude Ground
Speed
08-May-19 22:02 35.045753 -106.605186 90 5316ft 23kts
08-May-19 22:03 35.045822 -106.596983 90 5316ft 23kts
08-May-19 22:04 35.045776 -106.590066 89 5316ft 20kts
08-May-19 22:05 35.045756 -106.583242 90 5316ft 21kts
08-May-19 22:06 35.045232 -106.575764 162 5316ft 7kts
08-May-19 22:07 35.045117 -106.575731 168 5316ft 0kts
08-May-19 22:08 35.045117 -106.575731 168 5316ft 0kts
08-May-19 22:09 35.045117 -106.575731 168 5316ft 0kts
08-May-19 22:10 35.045117 -106.575731 168 5316ft 0kts
08-May-19 22:11 35.045117 -106.575731 168 5316ft 0kts
08-May-19 22:12 35.045117 -106.575731 168 5316ft 0kts
08-May-19 22:13 35.044261 -106.575699 180 5316ft 6kts
08-May-19 22:14 35.044078 -106.578003 269 5316ft 62kts
08-May-19 22:15 35.044141 -106.625120 250 7096ft 146kts
08-May-19 22:16 35.011442 -106.660922 218 8603ft 177kts
08-May-19 22:17 34.970777 -106.696410 206 10275ft 199kts
08-May-19 22:18 34.909850 -106.696779 157 11613ft 260kts
08-May-19 22:19 34.847810 -106.633462 136 13189ft 316kts
08-May-19 22:20 34.812341 -106.535585 100 15123ft 330kts
08-May-19 22:21 34.796936 -106.417103 100 16667ft 378kts
08-May-19 22:22 34.779762 -106.288603 101 19166ft 393kts
08-May-19 22:23 34.761948 -106.154671 101 21217ft 407kts
08-May-19 22:24 34.753245 -106.014909 94 23016ft 422kts
08-May-19 22:25 34.747297 -105.870533 95 24777ft 431kts
08-May-19 22:26 34.741338 -105.722597 95 26330ft 442kts
08-May-19 22:28 34.729753 -105.421859 94 29053ft 460kts
08-May-19 22:29 34.724014 -105.264819 95 30282ft 468kts
08-May-19 22:30 34.718430 -105.106434 95 31763ft 466kts
08-May-19 22:31 34.713027 -104.948709 95 33124ft 465kts
08-May-19 22:32 34.707884 -104.791997 95 34379ft 463kts
08-May-19 22:33 34.702597 -104.635780 97 35445ft 462kts
08-May-19 22:34 34.685552 -104.481568 101 36426ft 460kts
08-May-19 22:35 34.666646 -104.327039 101 37019ft 471kts
08-May-19 22:36 34.647351 -104.167129 101 37021ft 484kts
08-May-19 22:37 34.627516 -104.001097 101 37017ft 502kts
08-May-19 22:38 34.607764 -103.833752 101 37020ft 500kts
08-May-19 22:39 34.588627 -103.669773 101 37020ft 500kts
08-May-19 22:40 34.569384 -103.503019 100 37022ft 499kts
08-May-19 22:41 34.550434 -103.336798 101 37020ft 498kts
08-May-19 22:42 34.531743 -103.170652 101 37017ft 497kts
08-May-19 22:43 34.513298 -103.004939 100 37031ft 495kts
08-May-19 22:44 34.495066 -102.839041 100 37037ft 495kts
08-May-19 22:45 34.476647 -102.674016 101 37038ft 494kts
08-May-19 22:46 34.457618 -102.508525 101 37030ft 494kts
08-May-19 22:47 34.438876 -102.343514 101 37030ft 495kts
08-May-19 22:48 34.420426 -102.178677 101 37015ft 494kts
08-May-19 22:49 34.402451 -102.016514 101 36973ft 495kts
08-May-19 22:50 34.384883 -101.855959 101 36963ft 495kts
08-May-19 22:51 34.367002 -101.690703 100 36964ft 494kts
08-May-19 22:52 34.349385 -101.525841 100 36965ft 495kts
08-May-19 22:53 34.331910 -101.360195 100 36965ft 496kts
08-May-19 22:54 34.315051 -101.198113 101 36960ft 495kts
08-May-19 22:55 34.297772 -101.031661 102 36960ft 496kts
08-May-19 22:56 34.277396 -100.866651 103 36934ft 498kts
08-May-19 22:57 34.257299 -100.701097 103 36917ft 498kts
08-May-19 22:58 34.237294 -100.534492 103 36918ft 500kts
08-May-19 22:59 34.217847 -100.370736 103 36920ft 501kts
08-May-19 23:00 34.195479 -100.204931 108 36912ft 498kts
08-May-19 23:01 34.165073 -100.041659 108 36911ft 498kts
08-May-19 23:02 34.134951 -99.878182 108 36892ft 499kts
08-May-19 23:03 34.104986 -99.714406 108 36878ft 499kts
08-May-19 23:04 34.075230 -99.550551 108 36871ft 498kts
08-May-19 23:05 34.045734 -99.386902 108 36872ft 498kts
08-May-19 23:06 34.011825 -99.225752 116 36872ft 491kts
08-May-19 23:07 33.964395 -99.071431 119 36870ft 491kts
08-May-19 23:08 33.915605 -98.917498 119 36859ft 490kts
08-May-19 23:09 33.867367 -98.764623 120 34592ft 489kts
08-May-19 23:10 33.818981 -98.610798 119 30844ft 496kts
08-May-19 23:11 33.769760 -98.454005 117 26410ft 505kts
08-May-19 23:12 33.723311 -98.311305 118 25408ft 441kts
08-May-19 23:13 33.678088 -98.172594 116 21782ft 448kts
08-May-19 23:14 33.633917 -98.036311 115 19048ft 423kts
08-May-19 23:15 33.592440 -97.908038 114 16583ft 398kts
08-May-19 23:16 33.553625 -97.787572 114 14327ft 377kts
08-May-19 23:17 33.517685 -97.675684 113 12359ft 357kts
08-May-19 23:18 33.483279 -97.568372 112 11283ft 348kts
08-May-19 23:19 33.451757 -97.464010 102 10138ft 318kts
08-May-19 23:20 33.446523 -97.363826 92 10014ft 309kts
08-May-19 23:21 33.442469 -97.261054 93 10008ft 308kts
08-May-19 23:22 33.438428 -97.158125 93 10008ft 308kts
08-May-19 23:23 33.434650 -97.059933 93 9985ft 283kts
08-May-19 23:24 33.431077 -96.965495 93 10002ft 298kts
08-May-19 23:25 33.409330 -96.873946 121 9672ft 297kts
08-May-19 23:26 33.360843 -96.801530 152 8734ft 273kts
08-May-19 23:27 33.294025 -96.756324 152 7765ft 279kts
08-May-19 23:28 33.226880 -96.711358 152 6769ft 274kts
08-May-19 23:29 33.156344 -96.695504 204 5800ft 255kts
08-May-19 23:30 33.096889 -96.736410 212 4830ft 239kts
08-May-19 23:31 33.042422 -96.776018 211 4184ft 218kts
08-May-19 23:32 32.991095 -96.812814 210 3255ft 213kts
08-May-19 23:33 32.944835 -96.854489 228 2744ft 208kts
08-May-19 23:34 32.911347 -96.898255 194 2070ft 137kts
08-May-19 23:35 32.874182 -96.889484 138 957ft 136kts
08-May-19 23:36 32.846672 -96.858131 136 472ft 123kts
08-May-19 23:37 32.841747 -96.850540 316 478ft 11kts
08-May-19 23:38 32.843665 -96.852757 315 480ft 7kts
08-May-19 23:39 32.843858 -96.852980 315 480ft 0kts
08-May-19 23:40 32.844671 -96.853531 2 481ft 10kts
08-May-19 23:41 32.847116 -96.851910 140 484ft 5kts
08-May-19 23:42 32.846453 -96.851823 180 484ft 0kts
08-May-19 23:43 32.850188 -96.862151 135 493ft 135kts
08-May-19 23:45 32.848464 -96.860174 136 470ft 131kts
08-May-19 23:46 32.846501 -96.857936 136 472ft 122kts
08-May-19 23:47 32.860342 -96.874022 136 789ft 141kts
08-May-19 23:48 32.840564 -96.850916 117 476ft 19kts

Navigation Log

Ident Type
Flight plan parsing failed, navigation log unavailable